createdAt,value
2017-05-10T00:01:25.175Z,99.90
2017-05-10T00:03:53.774Z,99.90
2017-05-10T00:06:22.324Z,99.90
2017-05-10T00:08:50.867Z,99.90
2017-05-10T00:11:19.438Z,99.90
2017-05-10T00:13:47.979Z,99.90
2017-05-10T00:16:16.522Z,99.90
2017-05-10T00:18:45.121Z,99.90
2017-05-10T00:21:13.668Z,99.90
2017-05-10T00:23:42.197Z,99.90
2017-05-10T00:26:10.791Z,99.90
2017-05-10T00:28:39.346Z,99.90
2017-05-10T00:31:08.640Z,99.90
2017-05-10T00:33:37.259Z,99.90
2017-05-10T00:36:05.838Z,99.90
2017-05-10T00:38:34.418Z,99.90
2017-05-10T00:41:02.991Z,99.90
2017-05-10T00:43:31.545Z,99.90
2017-05-10T00:46:00.095Z,99.90
2017-05-10T00:48:28.675Z,99.90
2017-05-10T00:50:57.251Z,99.90
2017-05-10T00:53:25.797Z,99.90
2017-05-10T00:55:54.402Z,99.90
2017-05-10T00:58:22.942Z,99.90
2017-05-10T01:00:51.505Z,99.90
2017-05-10T01:03:20.094Z,99.90
2017-05-10T01:05:48.634Z,99.90
2017-05-10T01:08:17.180Z,99.90
2017-05-10T01:10:45.783Z,99.90
2017-05-10T01:13:14.335Z,99.90
2017-05-10T01:15:42.888Z,99.90
2017-05-10T01:18:11.501Z,99.90
2017-05-10T01:20:40.072Z,99.90
2017-05-10T01:23:08.628Z,99.90
2017-05-10T01:25:37.201Z,99.90
2017-05-10T01:28:05.774Z,99.90
2017-05-10T01:30:34.338Z,99.90
2017-05-10T01:33:02.933Z,99.90
2017-05-10T01:35:31.482Z,99.90
2017-05-10T01:38:00.021Z,99.90
2017-05-10T01:40:28.612Z,99.90
2017-05-10T01:42:57.159Z,99.90
2017-05-10T01:45:25.724Z,99.90
2017-05-10T01:47:54.322Z,99.90
2017-05-10T01:50:22.878Z,99.90
2017-05-10T01:52:51.430Z,99.90
2017-05-10T01:55:20.003Z,99.90
2017-05-10T01:57:48.549Z,99.90
2017-05-10T02:00:17.101Z,99.90
2017-05-10T02:02:45.695Z,99.90
2017-05-10T02:05:14.245Z,99.90
2017-05-10T02:07:42.787Z,99.90
2017-05-10T02:10:11.405Z,99.90
2017-05-10T02:12:39.954Z,99.90
2017-05-10T02:15:08.503Z,99.90
2017-05-10T02:17:37.102Z,99.90
2017-05-10T02:20:05.674Z,99.90
2017-05-10T02:22:34.209Z,99.90
2017-05-10T02:25:02.804Z,99.90
2017-05-10T02:27:31.385Z,99.90
2017-05-10T02:29:59.974Z,99.90
2017-05-10T02:32:28.599Z,99.90
2017-05-10T02:34:57.169Z,99.90
2017-05-10T02:37:25.759Z,99.90
2017-05-10T02:39:54.369Z,99.90
2017-05-10T02:42:22.935Z,99.90
2017-05-10T02:44:51.516Z,99.90
2017-05-10T02:47:20.101Z,99.90
2017-05-10T02:49:48.649Z,99.90
2017-05-10T02:52:17.199Z,99.90
2017-05-10T02:54:45.794Z,99.90
2017-05-10T02:57:14.342Z,99.90
2017-05-10T02:59:42.880Z,99.90
2017-05-10T03:02:11.467Z,99.90
2017-05-10T03:04:40.028Z,99.90
2017-05-10T03:07:08.595Z,99.90
2017-05-10T03:09:37.184Z,99.90
2017-05-10T03:12:05.728Z,99.90
2017-05-10T03:14:34.249Z,99.90
2017-05-10T03:17:02.805Z,99.90
2017-05-10T03:19:31.332Z,99.90
2017-05-10T03:21:59.857Z,99.90
2017-05-10T03:24:28.433Z,99.90
2017-05-10T03:26:56.961Z,99.90
2017-05-10T03:29:25.504Z,99.90
2017-05-10T03:31:54.070Z,99.90
2017-05-10T03:34:22.608Z,99.90
2017-05-10T03:36:51.130Z,99.90
2017-05-10T03:39:19.695Z,99.90
2017-05-10T03:41:48.226Z,99.90
2017-05-10T03:44:16.746Z,99.90
2017-05-10T03:46:45.308Z,99.90
2017-05-10T03:49:13.829Z,99.90
2017-05-10T03:51:42.345Z,99.90
2017-05-10T03:54:10.925Z,99.90
2017-05-10T03:56:39.454Z,99.90
2017-05-10T03:59:07.975Z,99.90
2017-05-10T04:01:36.546Z,99.90
2017-05-10T04:04:05.064Z,99.90
2017-05-10T04:06:33.587Z,99.90
2017-05-10T04:09:02.185Z,99.90
2017-05-10T04:11:30.709Z,99.90
2017-05-10T04:13:59.236Z,99.90
2017-05-10T04:16:28.589Z,99.90
2017-05-10T04:18:57.108Z,99.90
2017-05-10T04:21:25.637Z,99.90
2017-05-10T04:23:54.207Z,99.90
2017-05-10T04:26:22.737Z,99.90
2017-05-10T04:28:51.254Z,99.90
2017-05-10T04:31:19.844Z,99.90
2017-05-10T04:33:48.377Z,99.90
2017-05-10T04:36:16.915Z,99.90
2017-05-10T04:38:45.473Z,99.90
2017-05-10T04:41:13.988Z,99.90
2017-05-10T04:43:42.524Z,99.90
2017-05-10T04:46:11.114Z,99.90
2017-05-10T04:48:39.640Z,99.90
2017-05-10T04:51:08.152Z,99.90
2017-05-10T04:53:36.723Z,99.90
2017-05-10T04:56:05.260Z,99.90
2017-05-10T04:58:33.782Z,99.90
2017-05-10T05:01:02.377Z,99.90
2017-05-10T05:03:30.907Z,99.90
2017-05-10T05:05:59.430Z,99.90
2017-05-10T05:08:28.025Z,99.90
2017-05-10T05:10:56.608Z,99.90
2017-05-10T05:13:25.144Z,99.90
2017-05-10T05:15:53.693Z,99.80
2017-05-10T05:18:22.212Z,98.30
2017-05-10T05:20:50.720Z,98.20
2017-05-10T05:23:19.276Z,95.00
2017-05-10T05:25:47.785Z,94.10
2017-05-10T05:28:16.337Z,91.90
2017-05-10T05:30:44.892Z,90.60
2017-05-10T05:33:13.400Z,90.10
2017-05-10T05:35:41.914Z,84.60
2017-05-10T05:38:10.463Z,83.20
2017-05-10T05:40:38.967Z,81.10
2017-05-10T05:43:07.491Z,78.10
2017-05-10T05:45:36.046Z,75.10
2017-05-10T05:48:04.555Z,69.10
2017-05-10T05:50:33.092Z,67.20
2017-05-10T05:53:01.666Z,68.10
2017-05-10T05:55:30.185Z,65.60
2017-05-10T05:57:58.724Z,68.40
2017-05-10T06:00:27.287Z,65.80
2017-05-10T06:02:55.828Z,67.30
2017-05-10T06:05:24.357Z,70.10
2017-05-10T06:07:52.948Z,66.10
2017-05-10T06:10:21.469Z,63.20
2017-05-10T06:12:49.984Z,65.20
2017-05-10T06:15:18.543Z,66.20
2017-05-10T06:17:47.064Z,62.80
2017-05-10T06:20:15.580Z,62.20
2017-05-10T06:22:44.129Z,60.00
2017-05-10T06:25:12.635Z,59.00
2017-05-10T06:27:41.140Z,60.40
2017-05-10T06:30:10.433Z,59.50
2017-05-10T06:32:38.951Z,60.80
2017-05-10T06:35:07.451Z,61.60
2017-05-10T06:37:36.015Z,59.10
2017-05-10T06:40:04.526Z,56.60
2017-05-10T06:42:33.039Z,54.50
2017-05-10T06:45:01.584Z,53.20
2017-05-10T06:47:30.080Z,48.80
2017-05-10T06:49:58.585Z,45.50
2017-05-10T06:52:27.128Z,42.20
2017-05-10T06:54:55.632Z,38.20
2017-05-10T06:57:24.140Z,36.90
2017-05-10T06:59:52.685Z,34.60
2017-05-10T07:02:21.189Z,35.20
2017-05-10T07:04:49.696Z,34.30
2017-05-10T07:07:18.237Z,36.00
2017-05-10T07:09:46.738Z,36.80
2017-05-10T07:12:15.250Z,37.40
2017-05-10T07:14:43.830Z,39.10
2017-05-10T07:17:12.342Z,39.50
2017-05-10T07:19:40.852Z,39.10
2017-05-10T07:22:09.410Z,34.90
2017-05-10T07:24:37.928Z,33.70
2017-05-10T07:27:06.477Z,31.30
2017-05-10T07:29:35.033Z,31.80
2017-05-10T07:32:03.537Z,30.60
2017-05-10T07:34:32.051Z,30.50
2017-05-10T07:37:00.596Z,28.90
2017-05-10T07:39:29.101Z,30.80
2017-05-10T07:41:57.612Z,32.10
2017-05-10T07:44:26.166Z,33.10
2017-05-10T07:46:54.682Z,35.10
2017-05-10T07:49:23.198Z,34.60
2017-05-10T07:51:51.743Z,35.10
2017-05-10T07:54:20.245Z,35.60
2017-05-10T07:56:48.748Z,34.60
2017-05-10T07:59:17.295Z,36.20
2017-05-10T08:01:45.798Z,35.40
2017-05-10T08:04:14.302Z,33.60
2017-05-10T08:06:42.868Z,33.60
2017-05-10T08:09:11.363Z,34.70
2017-05-10T08:11:39.874Z,34.00
2017-05-10T08:14:08.426Z,32.20
2017-05-10T08:16:36.947Z,31.80
2017-05-10T08:19:05.453Z,29.50
2017-05-10T08:21:34.006Z,29.70
2017-05-10T08:24:02.522Z,30.90
2017-05-10T08:26:31.051Z,32.00
2017-05-10T08:28:59.627Z,35.60
2017-05-10T08:31:28.138Z,37.20
2017-05-10T08:33:56.653Z,37.30
2017-05-10T08:36:25.199Z,36.10
2017-05-10T08:38:53.706Z,33.80
2017-05-10T08:41:22.204Z,30.00
2017-05-10T08:43:50.754Z,28.30
2017-05-10T08:46:19.265Z,27.20
2017-05-10T08:48:47.770Z,26.00
2017-05-10T08:51:16.326Z,25.40
2017-05-10T08:53:44.835Z,25.90
2017-05-10T08:56:14.088Z,26.30
2017-05-10T08:58:42.636Z,28.00
2017-05-10T09:01:11.142Z,30.00
2017-05-10T09:03:39.648Z,31.20
2017-05-10T09:06:08.193Z,32.10
2017-05-10T09:08:36.704Z,34.40
2017-05-10T09:11:05.205Z,34.20
2017-05-10T09:13:33.774Z,35.00
2017-05-10T09:16:02.284Z,35.60
2017-05-10T09:18:30.791Z,33.60
2017-05-10T09:20:59.341Z,29.50
2017-05-10T09:23:27.841Z,29.60
2017-05-10T09:25:56.355Z,28.20
2017-05-10T09:28:24.904Z,27.20
2017-05-10T09:30:53.408Z,26.70
2017-05-10T09:33:21.922Z,27.80
2017-05-10T09:35:50.487Z,27.80
2017-05-10T09:38:18.992Z,28.00
2017-05-10T09:40:47.560Z,26.20
2017-05-10T09:43:16.105Z,27.90
2017-05-10T09:45:44.616Z,28.80
2017-05-10T09:48:13.124Z,28.70
2017-05-10T09:50:41.712Z,28.20
2017-05-10T09:53:10.213Z,27.10
2017-05-10T09:55:38.740Z,27.80
2017-05-10T09:58:07.286Z,28.00
2017-05-10T10:00:35.800Z,27.90
2017-05-10T10:03:04.309Z,28.60
2017-05-10T10:05:32.849Z,29.40
2017-05-10T10:08:01.353Z,29.10
2017-05-10T10:10:29.873Z,28.90
2017-05-10T10:12:58.424Z,27.80
2017-05-10T10:15:26.932Z,29.00
2017-05-10T10:17:55.437Z,30.00
2017-05-10T10:20:24.008Z,30.00
2017-05-10T10:22:52.517Z,29.80
2017-05-10T10:25:21.030Z,30.80
2017-05-10T10:27:49.572Z,29.90
2017-05-10T10:30:18.079Z,31.40
2017-05-10T10:32:46.594Z,30.00
2017-05-10T10:35:15.146Z,31.30
2017-05-10T10:37:43.660Z,30.60
2017-05-10T10:40:12.166Z,30.20
2017-05-10T10:42:40.718Z,29.10
2017-05-10T10:45:09.241Z,27.80
2017-05-10T10:47:37.749Z,28.40
2017-05-10T10:50:06.304Z,27.80
2017-05-10T10:52:34.813Z,27.20
2017-05-10T10:55:03.316Z,27.60
2017-05-10T10:57:31.871Z,27.60
2017-05-10T11:00:00.380Z,27.60
2017-05-10T11:02:28.904Z,27.40
2017-05-10T11:04:57.444Z,27.90
2017-05-10T11:07:25.957Z,27.80
2017-05-10T11:09:54.467Z,27.70
2017-05-10T11:12:23.039Z,26.40
2017-05-10T11:14:51.547Z,27.60
2017-05-10T11:17:20.047Z,26.30
2017-05-10T11:19:48.603Z,26.60
2017-05-10T11:22:17.112Z,26.70
2017-05-10T11:24:45.612Z,26.90
2017-05-10T11:27:14.156Z,26.80
2017-05-10T11:29:42.657Z,27.50
2017-05-10T11:32:11.163Z,27.50
2017-05-10T11:34:39.705Z,26.20
2017-05-10T11:37:08.206Z,27.00
2017-05-10T11:39:36.713Z,26.50
2017-05-10T11:42:05.266Z,27.20
2017-05-10T11:44:33.776Z,28.20
2017-05-10T11:47:02.276Z,28.30
2017-05-10T11:49:30.818Z,27.60
2017-05-10T11:51:59.325Z,26.90
2017-05-10T11:54:27.830Z,26.80
2017-05-10T11:56:56.389Z,28.40
2017-05-10T11:59:24.908Z,28.70
2017-05-10T12:01:53.411Z,28.20
2017-05-10T12:04:22.050Z,28.30
2017-05-10T12:06:50.653Z,28.50
2017-05-10T12:09:19.275Z,28.50
2017-05-10T12:11:47.919Z,28.60
2017-05-10T12:14:16.511Z,27.80
2017-05-10T12:16:45.123Z,28.30
2017-05-10T12:19:13.769Z,27.50
2017-05-10T12:21:42.277Z,29.00
2017-05-10T12:24:10.775Z,29.10
2017-05-10T12:26:39.325Z,28.80
2017-05-10T12:29:07.830Z,29.20
2017-05-10T12:31:36.333Z,29.50
2017-05-10T12:34:04.913Z,29.60
2017-05-10T12:36:33.416Z,29.80
2017-05-10T12:39:01.930Z,29.20
2017-05-10T12:41:30.477Z,30.10
2017-05-10T12:43:58.985Z,29.10
2017-05-10T12:46:27.491Z,27.90
2017-05-10T12:48:56.043Z,27.60
2017-05-10T12:51:24.555Z,28.40
2017-05-10T12:53:53.055Z,28.60
2017-05-10T12:56:21.598Z,29.00
2017-05-10T12:58:50.103Z,27.50
2017-05-10T13:01:18.603Z,27.20
2017-05-10T13:03:47.149Z,28.00
2017-05-10T13:06:15.664Z,28.90
2017-05-10T13:08:44.173Z,28.60
2017-05-10T13:11:12.711Z,28.80
2017-05-10T13:13:41.216Z,28.70
2017-05-10T13:16:09.728Z,28.60
2017-05-10T13:18:38.306Z,28.70
2017-05-10T13:21:06.815Z,28.80
2017-05-10T13:23:35.336Z,27.80
2017-05-10T13:26:03.881Z,28.30
2017-05-10T13:28:32.394Z,27.30
2017-05-10T13:31:00.907Z,27.10
2017-05-10T13:33:29.453Z,27.60
2017-05-10T13:35:58.014Z,28.60
2017-05-10T13:38:26.534Z,26.90
2017-05-10T13:40:55.081Z,28.80
2017-05-10T13:43:23.584Z,28.00
2017-05-10T13:45:52.092Z,27.10
2017-05-10T13:48:20.641Z,27.40
2017-05-10T13:50:49.153Z,26.70
2017-05-10T13:53:17.667Z,27.40
2017-05-10T13:55:46.220Z,28.80
2017-05-10T13:58:14.736Z,28.80
2017-05-10T14:00:43.245Z,28.10
2017-05-10T14:03:11.796Z,29.10
2017-05-10T14:05:40.306Z,29.20
2017-05-10T14:08:08.826Z,29.70
2017-05-10T14:10:37.386Z,30.00
2017-05-10T14:13:05.895Z,28.60
2017-05-10T14:15:34.407Z,29.00
2017-05-10T14:18:02.982Z,27.00
2017-05-10T14:20:31.493Z,28.80
2017-05-10T14:23:00.003Z,27.80
2017-05-10T14:25:28.552Z,27.90
2017-05-10T14:27:57.051Z,27.70
2017-05-10T14:30:25.545Z,27.50
2017-05-10T14:32:54.095Z,28.30
2017-05-10T14:35:23.263Z,28.90
2017-05-10T14:37:51.772Z,28.90
2017-05-10T14:40:20.326Z,28.90
2017-05-10T14:42:48.846Z,28.90
2017-05-10T14:45:17.357Z,29.50
2017-05-10T14:47:45.925Z,29.90
2017-05-10T14:50:14.432Z,29.10
2017-05-10T14:52:42.942Z,29.80
2017-05-10T14:55:12.237Z,29.10
2017-05-10T14:57:40.762Z,29.60
2017-05-10T15:00:09.312Z,29.20
2017-05-10T15:02:37.873Z,29.70
2017-05-10T15:05:06.384Z,29.90
2017-05-10T15:07:34.890Z,29.40
2017-05-10T15:10:03.456Z,30.00
2017-05-10T15:12:31.965Z,30.80
2017-05-10T15:15:00.473Z,29.70
2017-05-10T15:17:29.058Z,30.20
2017-05-10T15:19:57.561Z,29.40
2017-05-10T15:22:26.081Z,29.80
2017-05-10T15:24:54.654Z,28.90
2017-05-10T15:27:23.165Z,28.80
2017-05-10T15:29:51.671Z,28.60
2017-05-10T15:32:20.265Z,29.90
2017-05-10T15:34:48.803Z,31.00
2017-05-10T15:37:18.076Z,29.60
2017-05-10T15:39:46.646Z,30.60
2017-05-10T15:42:15.217Z,31.10
2017-05-10T15:44:43.759Z,31.10
2017-05-10T15:47:12.346Z,30.60
2017-05-10T15:49:40.938Z,29.80
2017-05-10T15:52:09.782Z,30.60
2017-05-10T15:54:38.332Z,30.40
2017-05-10T15:57:06.925Z,31.50
2017-05-10T15:59:35.451Z,32.90
2017-05-10T16:02:04.126Z,31.60
2017-05-10T16:04:32.679Z,32.60
2017-05-10T16:07:01.234Z,31.50
2017-05-10T16:09:29.798Z,31.40
2017-05-10T16:11:58.310Z,31.40
2017-05-10T16:14:26.849Z,32.00
2017-05-10T16:16:55.417Z,32.00
2017-05-10T16:19:23.940Z,32.40
2017-05-10T16:21:52.453Z,31.10
2017-05-10T16:24:21.420Z,33.30
2017-05-10T16:26:49.932Z,31.70
2017-05-10T16:29:18.487Z,33.80
2017-05-10T16:31:47.531Z,32.50
2017-05-10T16:34:16.052Z,34.20
2017-05-10T16:36:44.578Z,34.20
2017-05-10T16:39:13.148Z,33.60
2017-05-10T16:41:41.755Z,35.40
2017-05-10T16:44:10.285Z,34.00
2017-05-10T16:46:38.842Z,33.60
2017-05-10T16:49:07.360Z,33.10
2017-05-10T16:51:35.879Z,33.90
2017-05-10T16:54:04.452Z,34.90
2017-05-10T16:56:32.977Z,34.60
2017-05-10T16:59:01.625Z,35.10
2017-05-10T17:01:30.178Z,34.70
2017-05-10T17:03:58.704Z,35.00
2017-05-10T17:06:27.237Z,36.00
2017-05-10T17:08:55.794Z,35.10
2017-05-10T17:11:24.329Z,35.90
2017-05-10T17:13:52.856Z,36.60
2017-05-10T17:16:21.416Z,35.50
2017-05-10T17:18:49.943Z,35.90
2017-05-10T17:21:18.475Z,36.30
2017-05-10T17:23:47.087Z,35.90
2017-05-10T17:26:15.610Z,36.80
2017-05-10T17:28:44.134Z,36.70
2017-05-10T17:31:12.735Z,37.90
2017-05-10T17:33:41.281Z,38.50
2017-05-10T17:36:09.840Z,38.80
2017-05-10T17:38:38.408Z,39.60
2017-05-10T17:41:06.915Z,40.70
2017-05-10T17:43:35.445Z,41.20
2017-05-10T17:46:04.003Z,41.30
2017-05-10T17:48:32.818Z,41.40
2017-05-10T17:51:01.395Z,41.10
2017-05-10T17:53:29.966Z,41.50
2017-05-10T17:55:58.494Z,42.10
2017-05-10T17:58:27.019Z,42.90
2017-05-10T18:00:55.583Z,41.90
2017-05-10T18:03:24.211Z,42.30
2017-05-10T18:05:52.745Z,42.70
2017-05-10T18:08:21.321Z,42.70
2017-05-10T18:10:49.841Z,43.20
2017-05-10T18:13:18.373Z,43.50
2017-05-10T18:15:46.965Z,44.10
2017-05-10T18:18:15.560Z,45.10
2017-05-10T18:20:44.101Z,45.70
2017-05-10T18:23:13.039Z,46.40
2017-05-10T18:25:41.548Z,47.30
2017-05-10T18:28:10.060Z,47.80
2017-05-10T18:30:38.611Z,49.50
2017-05-10T18:33:07.326Z,49.50
2017-05-10T18:35:36.249Z,50.40
2017-05-10T18:38:04.889Z,51.70
2017-05-10T18:40:33.413Z,53.40
2017-05-10T18:43:01.956Z,54.20
2017-05-10T18:45:30.555Z,54.80
2017-05-10T18:47:59.100Z,55.30
2017-05-10T18:50:27.629Z,56.80
2017-05-10T18:52:56.207Z,58.10
2017-05-10T18:55:25.427Z,59.10
2017-05-10T18:57:53.973Z,60.10
2017-05-10T19:00:23.309Z,61.20
2017-05-10T19:02:51.892Z,63.20
2017-05-10T19:05:20.435Z,63.20
2017-05-10T19:07:49.022Z,63.50
2017-05-10T19:10:17.629Z,64.30
2017-05-10T19:12:46.149Z,65.40
2017-05-10T19:15:14.717Z,66.70
2017-05-10T19:17:43.979Z,68.70
2017-05-10T19:20:12.512Z,69.70
2017-05-10T19:22:41.082Z,71.20
2017-05-10T19:25:09.606Z,72.10
2017-05-10T19:27:38.130Z,72.30
2017-05-10T19:30:06.684Z,73.80
2017-05-10T19:32:35.207Z,76.10
2017-05-10T19:35:03.724Z,76.00
2017-05-10T19:37:32.421Z,76.70
2017-05-10T19:40:00.954Z,79.00
2017-05-10T19:42:29.485Z,78.90
2017-05-10T19:44:58.078Z,79.00
2017-05-10T19:47:26.639Z,78.90
2017-05-10T19:49:55.170Z,79.50
2017-05-10T19:52:23.738Z,79.80
2017-05-10T19:54:52.272Z,79.60
2017-05-10T19:57:20.822Z,79.60
2017-05-10T19:59:49.380Z,82.00
2017-05-10T20:02:17.930Z,84.50
2017-05-10T20:04:46.452Z,83.00
2017-05-10T20:07:15.020Z,84.10
2017-05-10T20:09:43.539Z,84.30
2017-05-10T20:12:12.057Z,83.10
2017-05-10T20:14:40.661Z,81.60
2017-05-10T20:17:09.194Z,80.70
2017-05-10T20:19:37.754Z,82.50
2017-05-10T20:22:06.353Z,81.00
2017-05-10T20:24:34.895Z,82.30
2017-05-10T20:27:03.435Z,81.30
2017-05-10T20:29:32.739Z,81.50
2017-05-10T20:32:01.286Z,82.00
2017-05-10T20:34:29.834Z,83.20
2017-05-10T20:36:58.518Z,85.40
2017-05-10T20:39:27.058Z,82.90
2017-05-10T20:41:55.584Z,82.40
2017-05-10T20:44:24.169Z,83.40
2017-05-10T20:46:52.827Z,82.20
2017-05-10T20:49:21.410Z,82.20
2017-05-10T20:51:50.001Z,84.50
2017-05-10T20:54:18.553Z,85.00
2017-05-10T20:56:47.103Z,87.00
2017-05-10T20:59:15.677Z,90.00
2017-05-10T21:01:44.204Z,91.10
2017-05-10T21:04:12.736Z,91.30
2017-05-10T21:06:41.368Z,91.60
2017-05-10T21:09:10.013Z,93.10
2017-05-10T21:11:38.547Z,93.70
2017-05-10T21:14:07.129Z,93.90
2017-05-10T21:16:35.650Z,94.90
2017-05-10T21:19:04.189Z,95.20
2017-05-10T21:21:32.789Z,95.20
2017-05-10T21:24:01.317Z,96.00
2017-05-10T21:26:29.838Z,96.60
2017-05-10T21:28:58.512Z,97.00
2017-05-10T21:31:27.042Z,97.50
2017-05-10T21:33:55.733Z,98.00
2017-05-10T21:36:24.328Z,97.50
2017-05-10T21:38:52.871Z,98.00
2017-05-10T21:41:21.427Z,97.00
2017-05-10T21:43:50.093Z,97.10
2017-05-10T21:46:18.632Z,97.10
2017-05-10T21:48:47.173Z,97.60
2017-05-10T21:51:15.743Z,98.10
2017-05-10T21:53:44.281Z,98.70
2017-05-10T21:56:12.842Z,98.30
2017-05-10T21:58:41.440Z,98.60
2017-05-10T22:01:09.961Z,98.50
2017-05-10T22:03:38.487Z,99.10
2017-05-10T22:06:07.069Z,99.90
2017-05-10T22:08:35.611Z,99.90
2017-05-10T22:11:04.151Z,99.90
2017-05-10T22:13:32.750Z,99.90
2017-05-10T22:16:01.302Z,99.90
2017-05-10T22:18:29.849Z,99.90
2017-05-10T22:20:58.411Z,99.90
2017-05-10T22:23:26.972Z,99.90
2017-05-10T22:25:55.505Z,99.90
2017-05-10T22:28:24.083Z,99.90
2017-05-10T22:30:52.625Z,99.90
2017-05-10T22:33:21.158Z,99.90
2017-05-10T22:35:49.727Z,99.90
2017-05-10T22:38:18.251Z,99.90
2017-05-10T22:40:46.796Z,99.90
2017-05-10T22:43:15.381Z,99.90
2017-05-10T22:45:43.917Z,99.90
2017-05-10T22:48:12.435Z,99.90
2017-05-10T22:50:41.024Z,99.90
2017-05-10T22:53:09.539Z,99.90
2017-05-10T22:55:38.068Z,99.90
2017-05-10T22:58:06.644Z,99.90
2017-05-10T23:00:35.156Z,99.90
2017-05-10T23:03:03.698Z,99.90
2017-05-10T23:05:32.257Z,99.90
2017-05-10T23:08:00.797Z,99.90
2017-05-10T23:10:29.331Z,99.90
2017-05-10T23:12:57.895Z,99.90
2017-05-10T23:15:26.438Z,99.90
2017-05-10T23:17:54.958Z,99.90
2017-05-10T23:20:23.524Z,99.90
2017-05-10T23:22:52.054Z,99.90
2017-05-10T23:25:20.585Z,99.90
2017-05-10T23:27:49.154Z,99.90
2017-05-10T23:30:17.683Z,99.90
2017-05-10T23:32:46.202Z,99.90
2017-05-10T23:35:14.781Z,99.90
2017-05-10T23:37:43.315Z,99.90
2017-05-10T23:40:11.821Z,99.90
2017-05-10T23:42:40.379Z,99.90
2017-05-10T23:45:08.915Z,99.90
2017-05-10T23:47:37.425Z,99.90
2017-05-10T23:50:05.966Z,99.90
2017-05-10T23:52:34.485Z,99.80
2017-05-10T23:55:03.731Z,99.90
2017-05-10T23:57:32.307Z,99.80
